createdAt,value
2018-10-16T00:00:18.869Z,66.80
2018-10-16T00:02:49.395Z,66.90
2018-10-16T00:05:19.748Z,66.90
2018-10-16T00:07:49.147Z,67.20
2018-10-16T00:10:24.288Z,67.30
2018-10-16T00:12:53.719Z,67.40
2018-10-16T00:15:23.149Z,67.20
2018-10-16T00:17:52.363Z,67.10
2018-10-16T00:20:21.681Z,67.10
2018-10-16T00:22:51.205Z,67.30
2018-10-16T00:25:20.481Z,67.80
2018-10-16T00:27:49.696Z,67.70
2018-10-16T00:30:19.854Z,67.40
2018-10-16T00:32:49.345Z,67.30
2018-10-16T00:35:18.568Z,67.20
2018-10-16T00:37:47.812Z,67.20
2018-10-16T00:40:17.626Z,67.40
2018-10-16T00:42:46.796Z,67.50
2018-10-16T00:45:22.342Z,67.50
2018-10-16T00:47:51.569Z,67.50
2018-10-16T00:50:21.016Z,67.50
2018-10-16T00:52:50.290Z,67.50
2018-10-16T00:55:19.480Z,67.50
2018-10-16T00:57:49.197Z,67.60
2018-10-16T01:00:18.608Z,67.80
2018-10-16T01:02:47.827Z,68.00
2018-10-16T01:05:17.197Z,68.40
2018-10-16T01:07:46.948Z,68.40
2018-10-16T01:10:17.181Z,68.60
2018-10-16T01:12:46.763Z,68.50
2018-10-16T01:15:16.451Z,68.50
2018-10-16T01:17:45.806Z,68.50
2018-10-16T01:20:15.280Z,68.50
2018-10-16T01:22:44.598Z,68.60
2018-10-16T01:25:14.130Z,68.60
2018-10-16T01:27:43.527Z,68.60
2018-10-16T01:30:13.449Z,68.60
2018-10-16T01:32:43.725Z,68.70
2018-10-16T01:35:13.788Z,68.70
2018-10-16T01:37:43.260Z,68.60
2018-10-16T01:40:13.186Z,68.60
2018-10-16T01:42:43.394Z,68.70
2018-10-16T01:45:14.407Z,68.70
2018-10-16T01:47:44.025Z,68.70
2018-10-16T01:50:13.338Z,69.50
2018-10-16T01:52:42.494Z,68.60
2018-10-16T01:55:13.739Z,68.70
2018-10-16T01:57:43.650Z,68.70
2018-10-16T02:00:13.480Z,68.70
2018-10-16T02:02:42.701Z,68.90
2018-10-16T02:05:11.952Z,68.90
2018-10-16T02:07:41.178Z,68.90
2018-10-16T02:10:10.657Z,69.00
2018-10-16T02:12:39.892Z,69.10
2018-10-16T02:15:09.606Z,69.00
2018-10-16T02:17:39.629Z,69.50
2018-10-16T02:20:09.639Z,69.20
2018-10-16T02:22:39.769Z,69.10
2018-10-16T02:25:10.000Z,69.10
2018-10-16T02:27:39.796Z,69.10
2018-10-16T02:30:09.047Z,69.00
2018-10-16T02:32:38.577Z,69.70
2018-10-16T02:35:11.079Z,69.10
2018-10-16T02:37:40.489Z,69.10
2018-10-16T02:40:11.896Z,69.10
2018-10-16T02:42:41.390Z,69.40
2018-10-16T02:45:12.265Z,69.30
2018-10-16T02:47:41.813Z,69.40
2018-10-16T02:50:13.273Z,69.30
2018-10-16T02:52:43.600Z,69.40
2018-10-16T02:55:13.891Z,69.30
2018-10-16T02:57:43.276Z,69.20
2018-10-16T03:00:12.421Z,69.30
2018-10-16T03:02:41.982Z,69.10
2018-10-16T03:05:11.369Z,69.10
2018-10-16T03:07:42.183Z,69.00
2018-10-16T03:10:12.799Z,69.10
2018-10-16T03:12:43.292Z,69.00
2018-10-16T03:15:13.770Z,69.00
2018-10-16T03:17:43.735Z,69.20
2018-10-16T03:20:13.077Z,69.10
2018-10-16T03:22:45.542Z,69.30
2018-10-16T03:25:15.533Z,69.40
2018-10-16T03:27:45.024Z,69.30
2018-10-16T03:30:15.150Z,69.20
2018-10-16T03:32:44.305Z,69.10
2018-10-16T03:35:13.710Z,69.10
2018-10-16T03:37:44.557Z,69.00
2018-10-16T03:40:14.054Z,68.90
2018-10-16T03:42:43.807Z,68.80
2018-10-16T03:45:14.704Z,68.90
2018-10-16T03:47:44.425Z,68.90
2018-10-16T03:50:14.541Z,68.90
2018-10-16T03:52:44.263Z,69.00
2018-10-16T03:55:13.910Z,68.90
2018-10-16T03:57:43.222Z,69.00
2018-10-16T04:00:13.020Z,69.20
2018-10-16T04:02:45.799Z,69.30
2018-10-16T04:05:15.162Z,69.30
2018-10-16T04:07:44.485Z,69.30
2018-10-16T04:10:14.181Z,69.30
2018-10-16T04:12:44.000Z,69.30
2018-10-16T04:15:14.969Z,69.50
2018-10-16T04:17:44.449Z,69.60
2018-10-16T04:20:15.377Z,69.50
2018-10-16T04:22:45.829Z,69.60
2018-10-16T04:25:20.873Z,69.60
2018-10-16T04:27:50.335Z,69.50
2018-10-16T04:30:20.543Z,70.00
2018-10-16T04:32:49.988Z,70.20
2018-10-16T04:35:19.605Z,69.50
2018-10-16T04:37:49.544Z,70.40
2018-10-16T04:40:20.268Z,69.60
2018-10-16T04:42:49.825Z,69.60
2018-10-16T04:45:25.280Z,69.80
2018-10-16T04:47:56.532Z,70.40
2018-10-16T04:50:26.256Z,69.30
2018-10-16T04:52:57.235Z,69.80
2018-10-16T04:55:28.192Z,69.80
2018-10-16T04:57:59.647Z,69.80
2018-10-16T05:00:30.434Z,69.50
2018-10-16T05:03:01.774Z,69.60
2018-10-16T05:05:32.993Z,69.60
2018-10-16T05:08:04.400Z,68.90
2018-10-16T05:10:35.875Z,69.50
2018-10-16T05:13:06.351Z,69.30
2018-10-16T05:15:37.601Z,69.30
2018-10-16T05:18:09.461Z,69.30
2018-10-16T05:20:38.845Z,69.30
2018-10-16T05:23:09.948Z,69.20
2018-10-16T05:25:43.790Z,69.20
2018-10-16T05:28:14.568Z,69.20
2018-10-16T05:30:44.902Z,69.20
2018-10-16T05:33:16.174Z,69.30
2018-10-16T05:35:47.103Z,70.10
2018-10-16T05:38:16.933Z,69.30
2018-10-16T05:40:47.441Z,69.30
2018-10-16T05:43:20.228Z,69.40
2018-10-16T05:45:50.804Z,69.30
2018-10-16T05:48:21.028Z,69.40
2018-10-16T05:50:51.938Z,69.40
2018-10-16T05:53:22.998Z,69.50
2018-10-16T05:56:05.470Z,69.50
2018-10-16T05:58:39.049Z,69.50
2018-10-16T06:01:12.282Z,69.30
2018-10-16T06:03:44.000Z,69.20
2018-10-16T06:06:14.757Z,70.00
2018-10-16T06:08:44.705Z,69.30
2018-10-16T06:11:17.296Z,69.20
2018-10-16T06:13:46.733Z,69.40
2018-10-16T06:16:16.035Z,69.50
2018-10-16T06:18:45.368Z,69.80
2018-10-16T06:21:14.679Z,69.90
2018-10-16T06:23:44.294Z,69.80
2018-10-16T06:26:13.975Z,70.50
2018-10-16T06:28:43.558Z,69.30
2018-10-16T06:31:13.222Z,69.00
2018-10-16T06:33:43.062Z,68.90
2018-10-16T06:36:12.321Z,68.70
2018-10-16T06:38:41.647Z,68.70
2018-10-16T06:41:11.425Z,68.70
2018-10-16T06:43:40.563Z,68.70
2018-10-16T06:46:09.755Z,68.70
2018-10-16T06:48:39.691Z,68.90
2018-10-16T06:51:08.484Z,69.30
2018-10-16T06:53:37.753Z,69.40
2018-10-16T06:56:07.373Z,69.40
2018-10-16T06:58:36.465Z,69.50
2018-10-16T07:01:06.036Z,69.30
2018-10-16T07:03:35.275Z,68.70
2018-10-16T07:06:04.535Z,69.00
2018-10-16T07:08:33.833Z,67.60
2018-10-16T07:11:03.147Z,67.40
2018-10-16T07:13:32.501Z,66.50
2018-10-16T07:16:01.844Z,65.80
2018-10-16T07:18:31.431Z,65.30
2018-10-16T07:21:00.749Z,65.00
2018-10-16T07:23:30.174Z,64.80
2018-10-16T07:25:59.388Z,64.50
2018-10-16T07:28:28.929Z,63.80
2018-10-16T07:30:58.187Z,63.10
2018-10-16T07:33:27.313Z,62.30
2018-10-16T07:35:56.558Z,61.40
2018-10-16T07:38:25.898Z,60.50
2018-10-16T07:40:54.989Z,59.60
2018-10-16T07:43:24.086Z,58.90
2018-10-16T07:45:53.245Z,58.40
2018-10-16T07:48:23.128Z,58.00
2018-10-16T07:50:52.209Z,57.50
2018-10-16T07:53:21.613Z,56.90
2018-10-16T07:55:50.855Z,55.70
2018-10-16T07:58:20.286Z,54.40
2018-10-16T08:00:49.436Z,53.30
2018-10-16T08:03:19.226Z,51.80
2018-10-16T08:05:48.382Z,51.80
2018-10-16T08:08:17.694Z,50.50
2018-10-16T08:10:47.772Z,50.40
2018-10-16T08:13:17.632Z,49.20
2018-10-16T08:15:46.921Z,48.20
2018-10-16T08:18:16.355Z,47.40
2018-10-16T08:20:45.861Z,46.80
2018-10-16T08:23:15.606Z,46.30
2018-10-16T08:25:44.915Z,46.40
2018-10-16T08:28:14.385Z,46.60
2018-10-16T08:30:43.926Z,46.30
2018-10-16T08:33:13.417Z,45.90
2018-10-16T08:35:43.784Z,45.80
2018-10-16T08:40:21.517Z,45.40
2018-10-16T08:43:19.298Z,45.10
2018-10-16T08:46:05.570Z,45.10
2018-10-16T08:48:52.041Z,45.20
2018-10-16T08:51:40.416Z,44.80
2018-10-16T08:54:10.599Z,44.10
2018-10-16T08:56:39.933Z,43.90
2018-10-16T08:59:09.015Z,44.10
2018-10-16T09:01:38.430Z,43.00
2018-10-16T09:04:07.661Z,42.70
2018-10-16T09:06:36.943Z,42.00
2018-10-16T09:09:11.402Z,42.90
2018-10-16T09:11:41.915Z,43.00
2018-10-16T09:14:11.477Z,43.30
2018-10-16T09:16:40.757Z,43.30
2018-10-16T09:19:10.026Z,43.80
2018-10-16T09:21:39.307Z,44.10
2018-10-16T09:24:08.471Z,44.50
2018-10-16T09:26:37.560Z,45.40
2018-10-16T09:29:06.893Z,45.10
2018-10-16T09:31:36.026Z,45.40
2018-10-16T09:34:05.727Z,46.00
2018-10-16T09:36:34.943Z,45.60
2018-10-16T09:39:06.393Z,45.90
2018-10-16T09:41:35.574Z,46.30
2018-10-16T09:44:05.031Z,45.20
2018-10-16T09:46:34.616Z,45.00
2018-10-16T09:49:03.988Z,44.50
2018-10-16T09:51:33.460Z,43.90
2018-10-16T09:54:03.961Z,44.00
2018-10-16T09:56:33.532Z,43.70
2018-10-16T09:59:02.841Z,43.80
2018-10-16T10:01:37.562Z,44.10
2018-10-16T10:04:07.473Z,44.70
2018-10-16T10:06:37.487Z,44.50
2018-10-16T10:09:11.150Z,44.00
2018-10-16T10:11:41.280Z,44.10
2018-10-16T10:14:10.916Z,43.90
2018-10-16T10:16:40.586Z,43.80
2018-10-16T10:19:10.044Z,44.30
2018-10-16T10:21:39.720Z,43.10
2018-10-16T10:24:08.962Z,41.90
2018-10-16T10:26:38.111Z,42.10
2018-10-16T10:29:08.254Z,41.30
2018-10-16T10:31:37.373Z,40.70
2018-10-16T10:34:06.906Z,40.90
2018-10-16T10:36:36.761Z,40.60
2018-10-16T10:39:10.494Z,40.60
2018-10-16T10:41:40.131Z,39.50
2018-10-16T10:44:09.900Z,40.00
2018-10-16T10:46:39.693Z,39.80
2018-10-16T10:49:09.332Z,39.90
2018-10-16T10:51:39.121Z,39.70
2018-10-16T10:54:08.251Z,39.50
2018-10-16T10:56:37.750Z,39.20
2018-10-16T10:59:07.036Z,39.10
2018-10-16T11:01:36.759Z,39.80
2018-10-16T11:04:06.743Z,39.70
2018-10-16T11:06:36.230Z,39.60
2018-10-16T11:09:09.051Z,39.80
2018-10-16T11:11:38.190Z,39.60
2018-10-16T11:14:07.680Z,40.10
2018-10-16T11:16:37.293Z,39.50
2018-10-16T11:19:06.700Z,40.30
2018-10-16T11:21:35.976Z,40.30
2018-10-16T11:24:06.157Z,39.90
2018-10-16T11:26:35.946Z,40.20
2018-10-16T11:29:05.341Z,40.70
2018-10-16T11:31:34.673Z,40.60
2018-10-16T11:34:05.072Z,40.30
2018-10-16T11:36:34.183Z,40.30
2018-10-16T11:39:05.150Z,40.10
2018-10-16T11:41:34.585Z,39.70
2018-10-16T11:44:03.918Z,40.30
2018-10-16T11:46:33.050Z,40.30
2018-10-16T11:49:02.500Z,40.30
2018-10-16T11:51:31.985Z,41.00
2018-10-16T11:54:01.331Z,40.90
2018-10-16T11:56:30.531Z,40.70
2018-10-16T11:58:59.928Z,40.50
2018-10-16T12:01:29.108Z,40.50
2018-10-16T12:03:58.305Z,40.10
2018-10-16T12:06:27.606Z,40.60
2018-10-16T12:08:56.902Z,40.60
2018-10-16T12:11:25.972Z,39.90
2018-10-16T12:13:58.165Z,39.80
2018-10-16T12:16:30.776Z,39.80
2018-10-16T12:19:04.774Z,40.80
2018-10-16T12:21:33.998Z,40.30
2018-10-16T12:24:04.278Z,39.90
2018-10-16T12:26:33.685Z,39.70
2018-10-16T12:29:03.172Z,40.00
2018-10-16T12:31:32.338Z,39.90
2018-10-16T12:34:01.623Z,39.90
2018-10-16T12:36:31.776Z,40.00
2018-10-16T12:39:01.216Z,40.10
2018-10-16T12:41:30.541Z,40.20
2018-10-16T12:44:00.271Z,39.60
2018-10-16T12:46:29.553Z,39.80
2018-10-16T12:48:58.843Z,39.70
2018-10-16T12:51:29.442Z,39.80
2018-10-16T12:53:58.825Z,39.40
2018-10-16T12:56:28.090Z,39.40
2018-10-16T12:58:57.988Z,39.20
2018-10-16T13:01:27.153Z,39.50
2018-10-16T13:03:56.702Z,39.10
2018-10-16T13:06:26.727Z,38.90
2018-10-16T13:08:56.500Z,39.30
2018-10-16T13:11:25.762Z,38.70
2018-10-16T13:13:55.121Z,38.50
2018-10-16T13:16:24.436Z,38.20
2018-10-16T13:18:53.720Z,38.70
2018-10-16T13:21:22.805Z,39.00
2018-10-16T13:23:52.568Z,38.60
2018-10-16T13:26:21.974Z,38.40
2018-10-16T13:28:51.834Z,39.20
2018-10-16T13:31:21.472Z,38.70
2018-10-16T13:33:51.337Z,39.10
2018-10-16T13:36:20.456Z,39.10
2018-10-16T13:38:49.954Z,39.30
2018-10-16T13:41:19.230Z,40.20
2018-10-16T13:43:48.508Z,40.00
2018-10-16T13:46:17.964Z,39.70
2018-10-16T13:48:47.370Z,40.00
2018-10-16T13:51:16.595Z,40.40
2018-10-16T13:53:46.177Z,39.90
2018-10-16T13:56:15.462Z,39.70
2018-10-16T13:58:44.636Z,39.50
2018-10-16T14:01:14.010Z,39.90
2018-10-16T14:03:43.286Z,40.00
2018-10-16T14:06:12.578Z,39.90
2018-10-16T14:08:42.485Z,39.90
2018-10-16T14:11:11.769Z,39.70
2018-10-16T14:13:40.957Z,40.10
2018-10-16T14:16:10.257Z,40.10
2018-10-16T14:18:40.025Z,40.40
2018-10-16T14:21:09.219Z,39.50
2018-10-16T14:23:38.485Z,39.50
2018-10-16T14:26:07.779Z,40.30
2018-10-16T14:28:37.051Z,39.60
2018-10-16T14:31:06.717Z,39.40
2018-10-16T14:33:35.994Z,39.40
2018-10-16T14:36:05.377Z,38.90
2018-10-16T14:38:34.631Z,39.00
2018-10-16T14:41:03.872Z,38.80
2018-10-16T14:43:33.246Z,38.90
2018-10-16T14:46:03.283Z,39.20
2018-10-16T14:48:33.278Z,39.20
2018-10-16T14:51:02.470Z,39.20
2018-10-16T14:53:31.699Z,39.70
2018-10-16T14:56:00.873Z,39.20
2018-10-16T14:58:30.003Z,39.40
2018-10-16T15:00:59.158Z,39.40
2018-10-16T15:03:28.829Z,40.60
2018-10-16T15:05:58.249Z,40.10
2018-10-16T15:08:28.116Z,40.30
2018-10-16T15:10:57.533Z,41.50
2018-10-16T15:13:26.810Z,40.80
2018-10-16T15:15:55.924Z,40.90
2018-10-16T15:18:25.285Z,41.20
2018-10-16T15:20:54.817Z,42.10
2018-10-16T15:23:23.923Z,41.40
2018-10-16T15:25:53.323Z,41.20
2018-10-16T15:31:01.386Z,41.60
2018-10-16T15:33:30.716Z,41.70
2018-10-16T15:36:00.383Z,41.60
2018-10-16T15:38:29.837Z,41.90
2018-10-16T15:40:59.810Z,41.90
2018-10-16T15:43:29.500Z,41.80
2018-10-16T15:45:58.799Z,42.30
2018-10-16T15:48:27.873Z,42.00
2018-10-16T15:50:57.189Z,42.20
2018-10-16T15:53:26.662Z,42.40
2018-10-16T15:55:56.943Z,42.00
2018-10-16T15:58:26.068Z,42.60
2018-10-16T16:00:55.355Z,42.50
2018-10-16T16:03:24.866Z,42.50
2018-10-16T16:05:54.595Z,42.70
2018-10-16T16:08:24.256Z,42.80
2018-10-16T16:10:53.551Z,42.90
2018-10-16T16:13:22.655Z,43.10
2018-10-16T16:15:51.951Z,43.20
2018-10-16T16:18:21.985Z,43.30
2018-10-16T16:20:51.195Z,43.50
2018-10-16T16:23:20.770Z,43.70
2018-10-16T16:25:49.938Z,43.90
2018-10-16T16:28:18.937Z,44.10
2018-10-16T16:30:48.229Z,44.40
2018-10-16T16:33:17.743Z,44.60
2018-10-16T16:35:48.465Z,44.70
2018-10-16T16:38:17.774Z,44.90
2018-10-16T16:40:47.279Z,45.10
2018-10-16T16:43:16.710Z,45.20
2018-10-16T16:45:46.601Z,45.40
2018-10-16T16:48:15.867Z,45.50
2018-10-16T16:50:45.372Z,45.70
2018-10-16T16:53:15.191Z,45.80
2018-10-16T16:55:44.673Z,46.00
2018-10-16T16:58:14.031Z,46.10
2018-10-16T17:00:43.378Z,46.20
2018-10-16T17:03:12.838Z,46.60
2018-10-16T17:05:42.622Z,46.80
2018-10-16T17:08:12.166Z,46.90
2018-10-16T17:10:42.262Z,47.20
2018-10-16T17:13:11.708Z,47.20
2018-10-16T17:15:41.886Z,47.30
2018-10-16T17:18:11.660Z,49.00
2018-10-16T17:20:42.024Z,48.50
2018-10-16T17:23:11.138Z,48.50
2018-10-16T17:25:41.666Z,48.50
2018-10-16T17:28:10.906Z,48.60
2018-10-16T17:30:41.847Z,48.70
2018-10-16T17:33:11.317Z,48.80
2018-10-16T17:35:40.782Z,48.90
2018-10-16T17:38:10.134Z,49.30
2018-10-16T17:40:39.877Z,49.50
2018-10-16T17:43:10.121Z,49.60
2018-10-16T17:45:40.459Z,49.80
2018-10-16T17:48:09.881Z,49.90
2018-10-16T17:50:39.223Z,50.00
2018-10-16T17:53:08.505Z,50.10
2018-10-16T17:55:37.681Z,50.20
2018-10-16T17:58:08.538Z,50.30
2018-10-16T18:00:37.679Z,50.50
2018-10-16T18:03:07.296Z,50.60
2018-10-16T18:05:36.595Z,50.80
2018-10-16T18:08:06.562Z,50.90
2018-10-16T18:10:35.876Z,52.10
2018-10-16T18:13:05.613Z,53.80
2018-10-16T18:15:34.969Z,52.90
2018-10-16T18:18:04.582Z,52.60
2018-10-16T18:20:33.782Z,52.40
2018-10-16T18:23:03.136Z,52.20
2018-10-16T18:25:32.486Z,52.30
2018-10-16T18:28:02.074Z,52.90
2018-10-16T18:30:31.582Z,52.30
2018-10-16T18:33:01.378Z,52.40
2018-10-16T18:35:30.340Z,52.40
2018-10-16T18:37:59.779Z,52.40
2018-10-16T18:40:30.185Z,52.50
2018-10-16T18:43:00.070Z,52.80
2018-10-16T18:45:29.652Z,52.80
2018-10-16T18:47:59.043Z,52.90
2018-10-16T18:50:28.856Z,53.10
2018-10-16T18:52:58.138Z,53.50
2018-10-16T18:55:27.681Z,53.30
2018-10-16T18:57:58.213Z,53.30
2018-10-16T19:00:27.370Z,53.50
2018-10-16T19:02:57.750Z,53.60
2018-10-16T19:05:27.061Z,53.60
2018-10-16T19:07:56.404Z,53.60
2018-10-16T19:10:25.706Z,53.70
2018-10-16T19:12:55.162Z,53.80
2018-10-16T19:15:24.646Z,53.90
2018-10-16T19:17:54.088Z,54.10
2018-10-16T19:20:23.737Z,54.20
2018-10-16T19:22:53.953Z,54.20
2018-10-16T19:25:23.897Z,54.20
2018-10-16T19:27:53.120Z,54.40
2018-10-16T19:30:22.832Z,54.50
2018-10-16T19:32:53.404Z,54.50
2018-10-16T19:35:23.465Z,54.70
2018-10-16T19:37:54.425Z,54.80
2018-10-16T19:40:23.637Z,55.00
2018-10-16T19:42:53.160Z,54.90
2018-10-16T19:45:22.454Z,55.10
2018-10-16T19:47:52.795Z,55.30
2018-10-16T19:50:24.437Z,55.30
2018-10-16T19:52:54.233Z,55.20
2018-10-16T19:55:23.519Z,55.40
2018-10-16T19:57:52.917Z,55.50
2018-10-16T20:00:22.554Z,55.70
2018-10-16T20:02:51.706Z,55.90
2018-10-16T20:05:27.093Z,56.10
2018-10-16T20:07:56.610Z,56.10
2018-10-16T20:10:25.885Z,56.10
2018-10-16T20:12:55.537Z,56.50
2018-10-16T20:15:25.411Z,56.60
2018-10-16T20:17:55.074Z,56.90
2018-10-16T20:20:24.608Z,57.00
2018-10-16T20:22:53.905Z,57.30
2018-10-16T20:25:23.603Z,57.50
2018-10-16T20:27:52.862Z,57.50
2018-10-16T20:30:22.222Z,57.80
2018-10-16T20:32:51.484Z,57.90
2018-10-16T20:35:22.357Z,58.10
2018-10-16T20:37:51.768Z,58.30
2018-10-16T20:40:20.937Z,58.30
2018-10-16T20:42:50.201Z,58.40
2018-10-16T20:45:19.539Z,58.50
2018-10-16T20:47:48.703Z,58.60
2018-10-16T20:50:17.985Z,58.70
2018-10-16T20:52:48.597Z,58.40
2018-10-16T20:55:17.761Z,58.50
2018-10-16T20:57:46.979Z,58.80
2018-10-16T21:00:16.216Z,59.10
2018-10-16T21:02:45.673Z,59.30
2018-10-16T21:05:15.198Z,59.60
2018-10-16T21:07:44.182Z,59.60
2018-10-16T21:10:14.578Z,59.70
2018-10-16T21:12:44.832Z,59.90
2018-10-16T21:15:14.793Z,60.00
2018-10-16T21:17:44.009Z,60.10
2018-10-16T21:20:13.927Z,60.10
2018-10-16T21:22:43.118Z,60.20
2018-10-16T21:25:12.311Z,60.10
2018-10-16T21:27:41.408Z,60.20
2018-10-16T21:30:11.206Z,60.30
2018-10-16T21:32:40.615Z,60.40
2018-10-16T21:35:09.919Z,60.40
2018-10-16T21:37:39.713Z,60.60
2018-10-16T21:40:09.439Z,60.40
2018-10-16T21:42:38.574Z,60.50
2018-10-16T21:45:07.844Z,60.40
2018-10-16T21:47:37.444Z,60.70
2018-10-16T21:50:06.697Z,60.70
2018-10-16T21:52:35.966Z,60.90
2018-10-16T21:55:05.901Z,61.00
2018-10-16T21:57:35.000Z,61.10
2018-10-16T22:00:04.233Z,61.20
2018-10-16T22:02:39.896Z,61.30
2018-10-16T22:05:09.063Z,61.30
2018-10-16T22:07:38.208Z,61.20
2018-10-16T22:10:07.459Z,61.60
2018-10-16T22:12:36.644Z,61.50
2018-10-16T22:15:06.173Z,61.60
2018-10-16T22:17:35.543Z,61.60
2018-10-16T22:20:05.252Z,62.20
2018-10-16T22:22:34.465Z,61.90
2018-10-16T22:25:03.622Z,61.80
2018-10-16T22:27:32.789Z,61.90
2018-10-16T22:30:02.082Z,62.10
2018-10-16T22:32:31.910Z,62.10
2018-10-16T22:35:01.458Z,62.20
2018-10-16T22:37:30.549Z,63.20
2018-10-16T22:39:59.814Z,62.30
2018-10-16T22:42:29.275Z,62.50
2018-10-16T22:44:58.758Z,62.70
2018-10-16T22:47:28.305Z,62.70
2018-10-16T22:49:57.458Z,62.70
2018-10-16T22:52:27.548Z,62.70
2018-10-16T22:54:56.632Z,62.90
2018-10-16T22:57:26.817Z,63.00
2018-10-16T22:59:56.480Z,63.00
2018-10-16T23:02:25.517Z,63.10
2018-10-16T23:04:54.888Z,62.80
2018-10-16T23:07:23.940Z,62.80
2018-10-16T23:09:53.018Z,62.90
2018-10-16T23:12:22.280Z,62.90
2018-10-16T23:14:51.385Z,62.90
2018-10-16T23:17:20.466Z,62.90
2018-10-16T23:19:49.731Z,63.00
2018-10-16T23:22:19.009Z,63.00
2018-10-16T23:24:48.040Z,62.90
2018-10-16T23:27:17.277Z,63.00
2018-10-16T23:29:46.368Z,63.10
2018-10-16T23:32:15.487Z,63.40
2018-10-16T23:34:44.627Z,64.20
2018-10-16T23:37:14.348Z,63.40
2018-10-16T23:39:44.102Z,63.60
2018-10-16T23:42:14.476Z,63.60
2018-10-16T23:44:44.101Z,63.80
2018-10-16T23:47:13.552Z,63.80
2018-10-16T23:49:42.740Z,64.00
2018-10-16T23:52:11.841Z,64.00
2018-10-16T23:54:40.999Z,64.00
2018-10-16T23:57:10.081Z,64.20
2018-10-16T23:59:39.192Z,64.20
